Decoded Metar for K2V5 ( in ) (IATA:) | Meteo·Mobile Aviation Weather
aviador You're here:

K2V5 Decoded Metar

in
Report Time2019-05-25 21:35:00
UTC Time2019-05-25 21:41:47
Flight Rules vfr VFR
Wind110° at 11 Gusting to 16 kt
Visibility9999 m
Phenomena:N/A
Clouds:N/A
Expected CloudBase > 9,200 ft AGL from Temp-Dew spread
CeilingNone
Temp26°C
Dew Point03°C (23% RH)
AAT20.6°C
QNH1015 hPa
Raw Report
K2V5 252135Z AUTO 11011G16KT 10SM CLR 26/03 A2997 RMK AO2=

Extra information for K2V5:More info

Social comments